sensor_id;sensor_type;location;lat;lon;timestamp;P1;durP1;ratioP1;P2;durP2;ratioP2
31336;SDS011;22846;42.654;23.314;2023-03-17T00:00:18;6.75;;;5.20;;
31336;SDS011;22846;42.654;23.314;2023-03-17T00:02:44;6.38;;;4.82;;
31336;SDS011;22846;42.654;23.314;2023-03-17T00:05:20;6.82;;;5.15;;
31336;SDS011;22846;42.654;23.314;2023-03-17T00:07:48;7.57;;;4.82;;
31336;SDS011;22846;42.654;23.314;2023-03-17T00:10:16;6.53;;;4.60;;
31336;SDS011;22846;42.654;23.314;2023-03-17T00:12:50;5.60;;;3.97;;
31336;SDS011;22846;42.654;23.314;2023-03-17T00:15:17;5.90;;;4.68;;
31336;SDS011;22846;42.654;23.314;2023-03-17T00:17:44;6.20;;;4.50;;
31336;SDS011;22846;42.654;23.314;2023-03-17T00:20:24;6.25;;;4.57;;
31336;SDS011;22846;42.654;23.314;2023-03-17T00:22:55;6.40;;;4.68;;
31336;SDS011;22846;42.654;23.314;2023-03-17T00:27:53;5.10;;;3.60;;
31336;SDS011;22846;42.654;23.314;2023-03-17T00:30:19;6.22;;;4.00;;
31336;SDS011;22846;42.654;23.314;2023-03-17T00:32:46;7.07;;;4.25;;
31336;SDS011;22846;42.654;23.314;2023-03-17T00:35:16;5.35;;;3.60;;
31336;SDS011;22846;42.654;23.314;2023-03-17T00:37:44;5.63;;;3.97;;
31336;SDS011;22846;42.654;23.314;2023-03-17T00:40:14;5.55;;;3.97;;
31336;SDS011;22846;42.654;23.314;2023-03-17T00:42:41;5.32;;;3.97;;
31336;SDS011;22846;42.654;23.314;2023-03-17T00:45:06;5.07;;;3.97;;
31336;SDS011;22846;42.654;23.314;2023-03-17T00:47:32;5.43;;;3.95;;
31336;SDS011;22846;42.654;23.314;2023-03-17T00:49:58;5.13;;;3.65;;
31336;SDS011;22846;42.654;23.314;2023-03-17T00:52:23;4.13;;;3.35;;
31336;SDS011;22846;42.654;23.314;2023-03-17T00:54:50;4.70;;;3.90;;
31336;SDS011;22846;42.654;23.314;2023-03-17T00:57:16;5.63;;;3.45;;
31336;SDS011;22846;42.654;23.314;2023-03-17T00:59:41;5.15;;;3.33;;
31336;SDS011;22846;42.654;23.314;2023-03-17T01:02:09;4.97;;;3.50;;
31336;SDS011;22846;42.654;23.314;2023-03-17T01:04:35;4.25;;;3.40;;
31336;SDS011;22846;42.654;23.314;2023-03-17T01:07:01;5.55;;;3.25;;
31336;SDS011;22846;42.654;23.314;2023-03-17T01:09:27;4.97;;;3.55;;
31336;SDS011;22846;42.654;23.314;2023-03-17T01:11:53;4.93;;;3.20;;
31336;SDS011;22846;42.654;23.314;2023-03-17T01:14:19;5.85;;;3.60;;
31336;SDS011;22846;42.654;23.314;2023-03-17T01:16:45;5.50;;;3.03;;
31336;SDS011;22846;42.654;23.314;2023-03-17T01:19:12;6.30;;;3.67;;
31336;SDS011;22846;42.654;23.314;2023-03-17T01:21:38;6.20;;;3.60;;
31336;SDS011;22846;42.654;23.314;2023-03-17T01:24:04;7.00;;;3.60;;
31336;SDS011;22846;42.654;23.314;2023-03-17T01:26:29;5.30;;;3.47;;
31336;SDS011;22846;42.654;23.314;2023-03-17T01:28:55;9.38;;;4.00;;
31336;SDS011;22846;42.654;23.314;2023-03-17T01:31:20;4.60;;;3.58;;
31336;SDS011;22846;42.654;23.314;2023-03-17T01:33:47;6.40;;;3.38;;
31336;SDS011;22846;42.654;23.314;2023-03-17T01:36:13;6.22;;;3.47;;
31336;SDS011;22846;42.654;23.314;2023-03-17T01:38:39;6.10;;;3.38;;
31336;SDS011;22846;42.654;23.314;2023-03-17T01:41:05;5.43;;;3.30;;
31336;SDS011;22846;42.654;23.314;2023-03-17T01:43:31;5.90;;;3.42;;
31336;SDS011;22846;42.654;23.314;2023-03-17T01:48:39;5.30;;;3.83;;
31336;SDS011;22846;42.654;23.314;2023-03-17T01:51:07;7.10;;;3.40;;
31336;SDS011;22846;42.654;23.314;2023-03-17T01:53:37;4.30;;;2.70;;
31336;SDS011;22846;42.654;23.314;2023-03-17T01:56:03;4.60;;;3.40;;
31336;SDS011;22846;42.654;23.314;2023-03-17T01:58:29;4.32;;;3.03;;
31336;SDS011;22846;42.654;23.314;2023-03-17T02:00:57;6.20;;;3.67;;
31336;SDS011;22846;42.654;23.314;2023-03-17T02:03:23;6.10;;;3.40;;
31336;SDS011;22846;42.654;23.314;2023-03-17T02:05:50;4.28;;;2.78;;
31336;SDS011;22846;42.654;23.314;2023-03-17T02:08:17;5.85;;;3.20;;
31336;SDS011;22846;42.654;23.314;2023-03-17T02:10:43;6.20;;;3.05;;
31336;SDS011;22846;42.654;23.314;2023-03-17T02:13:11;5.13;;;2.80;;
31336;SDS011;22846;42.654;23.314;2023-03-17T02:15:41;7.50;;;3.45;;
31336;SDS011;22846;42.654;23.314;2023-03-17T02:18:12;5.70;;;2.75;;
31336;SDS011;22846;42.654;23.314;2023-03-17T02:23:05;4.18;;;2.85;;
31336;SDS011;22846;42.654;23.314;2023-03-17T02:25:32;4.97;;;3.00;;
31336;SDS011;22846;42.654;23.314;2023-03-17T02:28:00;5.03;;;3.00;;
31336;SDS011;22846;42.654;23.314;2023-03-17T02:30:32;6.25;;;3.15;;
31336;SDS011;22846;42.654;23.314;2023-03-17T02:32:59;5.95;;;2.83;;
31336;SDS011;22846;42.654;23.314;2023-03-17T02:35:26;5.30;;;2.95;;
31336;SDS011;22846;42.654;23.314;2023-03-17T02:37:52;6.50;;;3.20;;
31336;SDS011;22846;42.654;23.314;2023-03-17T02:40:17;6.72;;;3.03;;
31336;SDS011;22846;42.654;23.314;2023-03-17T02:42:43;5.22;;;3.08;;
31336;SDS011;22846;42.654;23.314;2023-03-17T02:45:09;4.45;;;2.72;;
31336;SDS011;22846;42.654;23.314;2023-03-17T02:47:36;5.85;;;3.30;;
31336;SDS011;22846;42.654;23.314;2023-03-17T02:50:02;6.15;;;2.90;;
31336;SDS011;22846;42.654;23.314;2023-03-17T02:52:29;6.05;;;2.85;;
31336;SDS011;22846;42.654;23.314;2023-03-17T02:54:55;4.82;;;2.70;;
31336;SDS011;22846;42.654;23.314;2023-03-17T02:57:21;6.25;;;3.05;;
31336;SDS011;22846;42.654;23.314;2023-03-17T02:59:46;5.45;;;2.75;;
31336;SDS011;22846;42.654;23.314;2023-03-17T03:02:12;7.03;;;2.97;;
31336;SDS011;22846;42.654;23.314;2023-03-17T03:04:38;5.68;;;2.72;;
31336;SDS011;22846;42.654;23.314;2023-03-17T03:07:04;5.90;;;2.78;;
31336;SDS011;22846;42.654;23.314;2023-03-17T03:09:29;5.85;;;2.63;;
31336;SDS011;22846;42.654;23.314;2023-03-17T03:11:54;4.78;;;2.60;;
31336;SDS011;22846;42.654;23.314;2023-03-17T03:14:20;5.60;;;2.60;;
31336;SDS011;22846;42.654;23.314;2023-03-17T03:16:46;5.28;;;2.60;;
31336;SDS011;22846;42.654;23.314;2023-03-17T03:19:12;4.15;;;2.25;;
31336;SDS011;22846;42.654;23.314;2023-03-17T03:21:37;4.22;;;2.30;;
31336;SDS011;22846;42.654;23.314;2023-03-17T03:24:03;4.47;;;2.45;;
31336;SDS011;22846;42.654;23.314;2023-03-17T03:26:30;4.28;;;2.60;;
31336;SDS011;22846;42.654;23.314;2023-03-17T03:28:56;3.92;;;2.40;;
31336;SDS011;22846;42.654;23.314;2023-03-17T03:31:22;5.93;;;2.72;;
31336;SDS011;22846;42.654;23.314;2023-03-17T03:33:48;5.22;;;2.65;;
31336;SDS011;22846;42.654;23.314;2023-03-17T03:36:14;4.28;;;2.60;;
31336;SDS011;22846;42.654;23.314;2023-03-17T03:38:40;4.22;;;2.40;;
31336;SDS011;22846;42.654;23.314;2023-03-17T03:41:06;4.10;;;2.38;;
31336;SDS011;22846;42.654;23.314;2023-03-17T03:43:32;3.33;;;2.03;;
31336;SDS011;22846;42.654;23.314;2023-03-17T03:45:58;4.32;;;2.30;;
31336;SDS011;22846;42.654;23.314;2023-03-17T03:48:23;2.88;;;2.05;;
31336;SDS011;22846;42.654;23.314;2023-03-17T03:50:48;3.30;;;2.03;;
31336;SDS011;22846;42.654;23.314;2023-03-17T03:53:14;4.82;;;2.13;;
31336;SDS011;22846;42.654;23.314;2023-03-17T03:55:40;3.47;;;1.95;;
31336;SDS011;22846;42.654;23.314;2023-03-17T03:58:05;3.78;;;2.22;;
31336;SDS011;22846;42.654;23.314;2023-03-17T04:00:31;4.20;;;2.30;;
31336;SDS011;22846;42.654;23.314;2023-03-17T04:02:57;3.22;;;2.40;;
31336;SDS011;22846;42.654;23.314;2023-03-17T04:05:22;3.85;;;2.28;;
31336;SDS011;22846;42.654;23.314;2023-03-17T04:07:48;3.35;;;2.00;;
31336;SDS011;22846;42.654;23.314;2023-03-17T04:10:14;3.38;;;1.98;;
31336;SDS011;22846;42.654;23.314;2023-03-17T04:12:40;2.97;;;1.90;;
31336;SDS011;22846;42.654;23.314;2023-03-17T04:15:07;3.65;;;1.88;;
31336;SDS011;22846;42.654;23.314;2023-03-17T04:17:40;3.45;;;1.85;;
31336;SDS011;22846;42.654;23.314;2023-03-17T04:20:07;4.05;;;1.80;;
31336;SDS011;22846;42.654;23.314;2023-03-17T04:22:33;2.20;;;1.70;;
31336;SDS011;22846;42.654;23.314;2023-03-17T04:24:59;2.78;;;1.70;;
31336;SDS011;22846;42.654;23.314;2023-03-17T04:27:24;2.50;;;1.80;;
31336;SDS011;22846;42.654;23.314;2023-03-17T04:29:49;2.22;;;1.50;;
31336;SDS011;22846;42.654;23.314;2023-03-17T04:32:15;2.60;;;1.58;;
31336;SDS011;22846;42.654;23.314;2023-03-17T04:34:40;2.40;;;1.48;;
31336;SDS011;22846;42.654;23.314;2023-03-17T04:37:07;2.00;;;1.50;;
31336;SDS011;22846;42.654;23.314;2023-03-17T04:39:33;3.38;;;1.65;;
31336;SDS011;22846;42.654;23.314;2023-03-17T04:41:59;2.92;;;1.77;;
31336;SDS011;22846;42.654;23.314;2023-03-17T04:44:24;2.88;;;1.50;;
31336;SDS011;22846;42.654;23.314;2023-03-17T04:46:50;2.22;;;1.60;;
31336;SDS011;22846;42.654;23.314;2023-03-17T04:49:15;2.90;;;1.80;;
31336;SDS011;22846;42.654;23.314;2023-03-17T04:51:41;4.07;;;1.77;;
31336;SDS011;22846;42.654;23.314;2023-03-17T04:54:06;2.33;;;1.60;;
31336;SDS011;22846;42.654;23.314;2023-03-17T04:56:32;1.80;;;1.20;;
31336;SDS011;22846;42.654;23.314;2023-03-17T04:58:58;2.25;;;1.38;;
31336;SDS011;22846;42.654;23.314;2023-03-17T05:01:23;5.20;;;1.77;;
31336;SDS011;22846;42.654;23.314;2023-03-17T05:03:48;6.35;;;2.10;;
31336;SDS011;22846;42.654;23.314;2023-03-17T05:06:14;3.17;;;1.60;;
31336;SDS011;22846;42.654;23.314;2023-03-17T05:08:40;5.35;;;1.98;;
31336;SDS011;22846;42.654;23.314;2023-03-17T05:11:08;5.82;;;2.13;;
31336;SDS011;22846;42.654;23.314;2023-03-17T05:13:34;5.28;;;1.60;;
31336;SDS011;22846;42.654;23.314;2023-03-17T05:16:00;5.57;;;1.85;;
31336;SDS011;22846;42.654;23.314;2023-03-17T05:18:26;3.03;;;1.98;;
31336;SDS011;22846;42.654;23.314;2023-03-17T05:20:51;3.20;;;1.80;;
31336;SDS011;22846;42.654;23.314;2023-03-17T05:23:17;5.03;;;1.67;;
31336;SDS011;22846;42.654;23.314;2023-03-17T05:25:42;4.47;;;1.75;;
31336;SDS011;22846;42.654;23.314;2023-03-17T05:28:08;4.18;;;1.80;;
31336;SDS011;22846;42.654;23.314;2023-03-17T05:30:34;4.47;;;2.58;;
31336;SDS011;22846;42.654;23.314;2023-03-17T05:33:03;6.40;;;1.85;;
31336;SDS011;22846;42.654;23.314;2023-03-17T05:35:29;12.85;;;3.10;;
31336;SDS011;22846;42.654;23.314;2023-03-17T05:37:54;9.45;;;3.22;;
31336;SDS011;22846;42.654;23.314;2023-03-17T05:40:20;7.78;;;2.53;;
31336;SDS011;22846;42.654;23.314;2023-03-17T05:42:47;16.08;;;4.47;;
31336;SDS011;22846;42.654;23.314;2023-03-17T05:45:14;23.73;;;5.10;;
31336;SDS011;22846;42.654;23.314;2023-03-17T05:47:40;29.02;;;4.55;;
31336;SDS011;22846;42.654;23.314;2023-03-17T05:50:05;17.98;;;3.63;;
31336;SDS011;22846;42.654;23.314;2023-03-17T05:52:32;14.38;;;3.25;;
31336;SDS011;22846;42.654;23.314;2023-03-17T05:54:57;14.57;;;3.00;;
31336;SDS011;22846;42.654;23.314;2023-03-17T05:57:22;6.97;;;2.78;;
31336;SDS011;22846;42.654;23.314;2023-03-17T05:59:48;9.60;;;2.95;;
31336;SDS011;22846;42.654;23.314;2023-03-17T06:02:14;8.27;;;2.58;;
31336;SDS011;22846;42.654;23.314;2023-03-17T06:04:40;9.60;;;2.42;;
31336;SDS011;22846;42.654;23.314;2023-03-17T06:07:07;7.53;;;2.78;;
31336;SDS011;22846;42.654;23.314;2023-03-17T06:09:34;7.32;;;2.90;;
31336;SDS011;22846;42.654;23.314;2023-03-17T06:12:00;7.57;;;2.25;;
31336;SDS011;22846;42.654;23.314;2023-03-17T06:14:25;5.75;;;2.40;;
31336;SDS011;22846;42.654;23.314;2023-03-17T06:16:51;5.57;;;2.67;;
31336;SDS011;22846;42.654;23.314;2023-03-17T06:19:17;6.80;;;2.65;;
31336;SDS011;22846;42.654;23.314;2023-03-17T06:21:42;8.23;;;2.58;;
31336;SDS011;22846;42.654;23.314;2023-03-17T06:24:08;5.28;;;2.40;;
31336;SDS011;22846;42.654;23.314;2023-03-17T06:26:34;5.93;;;2.55;;
31336;SDS011;22846;42.654;23.314;2023-03-17T06:29:01;5.03;;;2.50;;
31336;SDS011;22846;42.654;23.314;2023-03-17T06:31:33;7.25;;;2.78;;
31336;SDS011;22846;42.654;23.314;2023-03-17T06:33:58;9.88;;;2.50;;
31336;SDS011;22846;42.654;23.314;2023-03-17T06:36:24;5.22;;;2.05;;
31336;SDS011;22846;42.654;23.314;2023-03-17T06:38:49;5.35;;;2.42;;
31336;SDS011;22846;42.654;23.314;2023-03-17T06:41:15;6.28;;;2.50;;
31336;SDS011;22846;42.654;23.314;2023-03-17T06:43:41;6.47;;;2.50;;
31336;SDS011;22846;42.654;23.314;2023-03-17T06:46:06;5.10;;;2.65;;
31336;SDS011;22846;42.654;23.314;2023-03-17T06:48:32;4.00;;;2.10;;
31336;SDS011;22846;42.654;23.314;2023-03-17T06:50:58;7.30;;;2.10;;
31336;SDS011;22846;42.654;23.314;2023-03-17T06:53:24;4.57;;;2.75;;
31336;SDS011;22846;42.654;23.314;2023-03-17T06:55:50;7.15;;;2.40;;
31336;SDS011;22846;42.654;23.314;2023-03-17T06:58:15;4.03;;;2.17;;
31336;SDS011;22846;42.654;23.314;2023-03-17T07:00:41;6.18;;;2.67;;
31336;SDS011;22846;42.654;23.314;2023-03-17T07:03:09;3.85;;;2.20;;
31336;SDS011;22846;42.654;23.314;2023-03-17T07:05:35;3.00;;;2.22;;
31336;SDS011;22846;42.654;23.314;2023-03-17T07:08:02;4.03;;;2.20;;
31336;SDS011;22846;42.654;23.314;2023-03-17T07:10:27;6.28;;;2.28;;
31336;SDS011;22846;42.654;23.314;2023-03-17T07:12:52;5.00;;;2.08;;
31336;SDS011;22846;42.654;23.314;2023-03-17T07:15:18;6.40;;;2.53;;
31336;SDS011;22846;42.654;23.314;2023-03-17T07:17:44;3.95;;;2.20;;
31336;SDS011;22846;42.654;23.314;2023-03-17T07:20:13;4.20;;;2.17;;
31336;SDS011;22846;42.654;23.314;2023-03-17T07:22:39;4.40;;;2.20;;
31336;SDS011;22846;42.654;23.314;2023-03-17T07:25:05;5.25;;;2.03;;
31336;SDS011;22846;42.654;23.314;2023-03-17T07:27:31;4.85;;;2.50;;
31336;SDS011;22846;42.654;23.314;2023-03-17T07:29:57;4.43;;;2.33;;
31336;SDS011;22846;42.654;23.314;2023-03-17T07:32:26;5.30;;;2.47;;
31336;SDS011;22846;42.654;23.314;2023-03-17T07:34:52;3.15;;;2.15;;
31336;SDS011;22846;42.654;23.314;2023-03-17T07:37:17;3.72;;;2.42;;
31336;SDS011;22846;42.654;23.314;2023-03-17T07:39:43;3.60;;;2.10;;
31336;SDS011;22846;42.654;23.314;2023-03-17T07:42:11;4.95;;;2.10;;
31336;SDS011;22846;42.654;23.314;2023-03-17T07:44:39;6.50;;;2.22;;
31336;SDS011;22846;42.654;23.314;2023-03-17T07:47:05;3.53;;;2.42;;
31336;SDS011;22846;42.654;23.314;2023-03-17T07:49:31;4.03;;;2.30;;
31336;SDS011;22846;42.654;23.314;2023-03-17T07:51:57;3.97;;;2.22;;
31336;SDS011;22846;42.654;23.314;2023-03-17T07:54:22;3.30;;;2.20;;
31336;SDS011;22846;42.654;23.314;2023-03-17T07:56:49;4.68;;;1.70;;
31336;SDS011;22846;42.654;23.314;2023-03-17T07:59:15;3.47;;;1.98;;
31336;SDS011;22846;42.654;23.314;2023-03-17T08:01:40;3.67;;;2.13;;
31336;SDS011;22846;42.654;23.314;2023-03-17T08:04:06;2.50;;;1.90;;
31336;SDS011;22846;42.654;23.314;2023-03-17T08:06:31;4.80;;;2.20;;
31336;SDS011;22846;42.654;23.314;2023-03-17T08:08:57;3.60;;;2.10;;
31336;SDS011;22846;42.654;23.314;2023-03-17T08:11:22;4.20;;;2.30;;
31336;SDS011;22846;42.654;23.314;2023-03-17T08:13:48;3.13;;;1.83;;
31336;SDS011;22846;42.654;23.314;2023-03-17T08:16:14;3.28;;;2.20;;
31336;SDS011;22846;42.654;23.314;2023-03-17T08:18:40;2.80;;;2.03;;
31336;SDS011;22846;42.654;23.314;2023-03-17T08:21:05;3.33;;;1.90;;
31336;SDS011;22846;42.654;23.314;2023-03-17T08:23:31;3.35;;;1.90;;
31336;SDS011;22846;42.654;23.314;2023-03-17T08:25:59;3.83;;;1.92;;
31336;SDS011;22846;42.654;23.314;2023-03-17T08:28:25;2.55;;;1.92;;
31336;SDS011;22846;42.654;23.314;2023-03-17T08:30:52;3.25;;;2.10;;
31336;SDS011;22846;42.654;23.314;2023-03-17T08:33:17;6.20;;;1.90;;
31336;SDS011;22846;42.654;23.314;2023-03-17T08:35:42;3.30;;;1.95;;
31336;SDS011;22846;42.654;23.314;2023-03-17T08:38:08;2.90;;;2.08;;
31336;SDS011;22846;42.654;23.314;2023-03-17T08:40:34;3.50;;;1.92;;
31336;SDS011;22846;42.654;23.314;2023-03-17T08:43:01;2.40;;;1.77;;
31336;SDS011;22846;42.654;23.314;2023-03-17T08:45:26;4.25;;;2.00;;
31336;SDS011;22846;42.654;23.314;2023-03-17T08:47:52;2.10;;;1.63;;
31336;SDS011;22846;42.654;23.314;2023-03-17T08:50:20;3.67;;;1.98;;
31336;SDS011;22846;42.654;23.314;2023-03-17T08:52:47;2.33;;;1.80;;
31336;SDS011;22846;42.654;23.314;2023-03-17T08:55:13;2.75;;;1.77;;
31336;SDS011;22846;42.654;23.314;2023-03-17T08:57:40;2.97;;;1.90;;
31336;SDS011;22846;42.654;23.314;2023-03-17T09:00:07;2.35;;;1.77;;
31336;SDS011;22846;42.654;23.314;2023-03-17T09:02:38;2.60;;;1.80;;
31336;SDS011;22846;42.654;23.314;2023-03-17T09:05:06;2.70;;;1.70;;
31336;SDS011;22846;42.654;23.314;2023-03-17T09:07:33;2.80;;;1.92;;
31336;SDS011;22846;42.654;23.314;2023-03-17T09:09:59;2.95;;;1.83;;
31336;SDS011;22846;42.654;23.314;2023-03-17T09:12:24;2.55;;;1.70;;
31336;SDS011;22846;42.654;23.314;2023-03-17T09:14:50;2.20;;;1.50;;
31336;SDS011;22846;42.654;23.314;2023-03-17T09:17:15;2.58;;;1.70;;
31336;SDS011;22846;42.654;23.314;2023-03-17T09:19:41;2.35;;;1.70;;
31336;SDS011;22846;42.654;23.314;2023-03-17T09:22:09;4.05;;;2.00;;
31336;SDS011;22846;42.654;23.314;2023-03-17T09:24:37;4.25;;;1.88;;
31336;SDS011;22846;42.654;23.314;2023-03-17T09:27:02;2.42;;;1.55;;
31336;SDS011;22846;42.654;23.314;2023-03-17T09:29:28;2.90;;;1.75;;
31336;SDS011;22846;42.654;23.314;2023-03-17T09:31:54;5.00;;;2.08;;
31336;SDS011;22846;42.654;23.314;2023-03-17T09:34:20;2.17;;;1.52;;
31336;SDS011;22846;42.654;23.314;2023-03-17T09:36:46;2.25;;;1.45;;
31336;SDS011;22846;42.654;23.314;2023-03-17T09:39:12;3.05;;;1.60;;
31336;SDS011;22846;42.654;23.314;2023-03-17T09:50:13;3.42;;;1.63;;
31336;SDS011;22846;42.654;23.314;2023-03-17T09:52:42;1.98;;;1.55;;
31336;SDS011;22846;42.654;23.314;2023-03-17T09:55:11;2.85;;;1.80;;
31336;SDS011;22846;42.654;23.314;2023-03-17T09:57:44;2.25;;;1.65;;
31336;SDS011;22846;42.654;23.314;2023-03-17T10:00:11;2.00;;;1.42;;
31336;SDS011;22846;42.654;23.314;2023-03-17T10:02:39;1.95;;;1.63;;
31336;SDS011;22846;42.654;23.314;2023-03-17T10:07:42;2.45;;;1.50;;
31336;SDS011;22846;42.654;23.314;2023-03-17T10:18:57;2.47;;;1.75;;
31336;SDS011;22846;42.654;23.314;2023-03-17T10:21:26;2.20;;;1.70;;
31336;SDS011;22846;42.654;23.314;2023-03-17T10:23:55;1.88;;;1.35;;
31336;SDS011;22846;42.654;23.314;2023-03-17T10:26:36;1.80;;;1.50;;
31336;SDS011;22846;42.654;23.314;2023-03-17T10:29:16;1.38;;;1.20;;
31336;SDS011;22846;42.654;23.314;2023-03-17T10:31:45;2.35;;;1.30;;
31336;SDS011;22846;42.654;23.314;2023-03-17T10:34:15;2.20;;;1.60;;
31336;SDS011;22846;42.654;23.314;2023-03-17T10:36:46;2.30;;;1.75;;
31336;SDS011;22846;42.654;23.314;2023-03-17T10:39:16;2.45;;;1.20;;
31336;SDS011;22846;42.654;23.314;2023-03-17T10:42:01;1.95;;;1.60;;
31336;SDS011;22846;42.654;23.314;2023-03-17T10:44:44;2.35;;;1.40;;
31336;SDS011;22846;42.654;23.314;2023-03-17T10:48:16;1.60;;;1.35;;
31336;SDS011;22846;42.654;23.314;2023-03-17T10:50:23;1.95;;;1.58;;
31336;SDS011;22846;42.654;23.314;2023-03-17T10:53:38;1.80;;;1.45;;
31336;SDS011;22846;42.654;23.314;2023-03-17T10:55:52;2.30;;;1.45;;
31336;SDS011;22846;42.654;23.314;2023-03-17T11:03:44;1.50;;;1.30;;
31336;SDS011;22846;42.654;23.314;2023-03-17T11:06:14;2.92;;;1.65;;
31336;SDS011;22846;42.654;23.314;2023-03-17T11:08:53;1.73;;;1.40;;
31336;SDS011;22846;42.654;23.314;2023-03-17T11:11:26;1.60;;;1.40;;
31336;SDS011;22846;42.654;23.314;2023-03-17T11:14:00;2.60;;;1.70;;
31336;SDS011;22846;42.654;23.314;2023-03-17T11:16:27;2.75;;;1.52;;
31336;SDS011;22846;42.654;23.314;2023-03-17T11:18:56;2.05;;;1.42;;
31336;SDS011;22846;42.654;23.314;2023-03-17T11:21:25;1.80;;;1.30;;
31336;SDS011;22846;42.654;23.314;2023-03-17T11:40:20;1.63;;;1.20;;
31336;SDS011;22846;42.654;23.314;2023-03-17T11:45:56;1.50;;;1.15;;
31336;SDS011;22846;42.654;23.314;2023-03-17T11:53:58;2.38;;;1.50;;
31336;SDS011;22846;42.654;23.314;2023-03-17T11:56:36;1.30;;;1.15;;
31336;SDS011;22846;42.654;23.314;2023-03-17T11:59:10;1.50;;;1.20;;
31336;SDS011;22846;42.654;23.314;2023-03-17T12:02:05;1.92;;;1.30;;
31336;SDS011;22846;42.654;23.314;2023-03-17T12:04:35;1.52;;;1.33;;
31336;SDS011;22846;42.654;23.314;2023-03-17T12:07:18;2.65;;;1.60;;
31336;SDS011;22846;42.654;23.314;2023-03-17T12:09:51;2.38;;;1.65;;
31336;SDS011;22846;42.654;23.314;2023-03-17T12:12:18;2.20;;;1.60;;
31336;SDS011;22846;42.654;23.314;2023-03-17T12:14:52;2.28;;;1.60;;
31336;SDS011;22846;42.654;23.314;2023-03-17T12:17:38;2.85;;;1.70;;
31336;SDS011;22846;42.654;23.314;2023-03-17T12:23:14;3.47;;;1.58;;
31336;SDS011;22846;42.654;23.314;2023-03-17T12:25:56;1.67;;;1.33;;
31336;SDS011;22846;42.654;23.314;2023-03-17T12:28:31;2.05;;;1.60;;
31336;SDS011;22846;42.654;23.314;2023-03-17T12:31:06;4.07;;;1.60;;
31336;SDS011;22846;42.654;23.314;2023-03-17T12:33:39;2.10;;;1.55;;
31336;SDS011;22846;42.654;23.314;2023-03-17T12:36:25;3.22;;;1.55;;
31336;SDS011;22846;42.654;23.314;2023-03-17T12:53:00;2.40;;;1.52;;
31336;SDS011;22846;42.654;23.314;2023-03-17T12:55:57;2.42;;;1.35;;
31336;SDS011;22846;42.654;23.314;2023-03-17T12:58:37;1.63;;;1.40;;
31336;SDS011;22846;42.654;23.314;2023-03-17T13:01:12;2.10;;;1.50;;
31336;SDS011;22846;42.654;23.314;2023-03-17T13:03:45;2.40;;;1.25;;
31336;SDS011;22846;42.654;23.314;2023-03-17T13:06:21;1.92;;;1.30;;
31336;SDS011;22846;42.654;23.314;2023-03-17T13:08:49;1.98;;;1.27;;
31336;SDS011;22846;42.654;23.314;2023-03-17T13:16:48;1.83;;;1.42;;
31336;SDS011;22846;42.654;23.314;2023-03-17T13:21:42;2.83;;;1.33;;
31336;SDS011;22846;42.654;23.314;2023-03-17T13:45:40;1.60;;;1.17;;
31336;SDS011;22846;42.654;23.314;2023-03-17T13:53:34;1.48;;;1.10;;
31336;SDS011;22846;42.654;23.314;2023-03-17T13:56:23;2.33;;;1.40;;
31336;SDS011;22846;42.654;23.314;2023-03-17T14:01:56;2.40;;;1.30;;
31336;SDS011;22846;42.654;23.314;2023-03-17T14:04:28;2.90;;;1.25;;
31336;SDS011;22846;42.654;23.314;2023-03-17T14:06:59;2.47;;;1.30;;
31336;SDS011;22846;42.654;23.314;2023-03-17T14:09:43;2.20;;;1.20;;
31336;SDS011;22846;42.654;23.314;2023-03-17T14:12:14;2.85;;;1.27;;
31336;SDS011;22846;42.654;23.314;2023-03-17T14:17:27;1.75;;;1.00;;
31336;SDS011;22846;42.654;23.314;2023-03-17T14:20:03;1.60;;;1.20;;
31336;SDS011;22846;42.654;23.314;2023-03-17T14:22:32;2.42;;;1.20;;
31336;SDS011;22846;42.654;23.314;2023-03-17T14:25:05;1.33;;;0.90;;
31336;SDS011;22846;42.654;23.314;2023-03-17T14:27:32;1.35;;;1.10;;
31336;SDS011;22846;42.654;23.314;2023-03-17T14:30:11;1.20;;;1.00;;
31336;SDS011;22846;42.654;23.314;2023-03-17T14:32:44;1.08;;;0.98;;
31336;SDS011;22846;42.654;23.314;2023-03-17T14:35:13;0.90;;;0.90;;
31336;SDS011;22846;42.654;23.314;2023-03-17T14:37:39;1.63;;;1.10;;
31336;SDS011;22846;42.654;23.314;2023-03-17T14:40:21;3.38;;;1.05;;
31336;SDS011;22846;42.654;23.314;2023-03-17T14:42:49;1.27;;;1.00;;
31336;SDS011;22846;42.654;23.314;2023-03-17T14:45:25;1.40;;;1.00;;
31336;SDS011;22846;42.654;23.314;2023-03-17T14:48:13;1.00;;;0.90;;
31336;SDS011;22846;42.654;23.314;2023-03-17T14:50:54;0.93;;;0.80;;
31336;SDS011;22846;42.654;23.314;2023-03-17T14:53:23;1.45;;;1.00;;
31336;SDS011;22846;42.654;23.314;2023-03-17T14:55:50;1.30;;;1.20;;
31336;SDS011;22846;42.654;23.314;2023-03-17T14:58:24;1.23;;;0.95;;
31336;SDS011;22846;42.654;23.314;2023-03-17T15:03:54;1.10;;;0.80;;
31336;SDS011;22846;42.654;23.314;2023-03-17T15:06:28;0.97;;;0.97;;
31336;SDS011;22846;42.654;23.314;2023-03-17T15:08:57;1.02;;;0.95;;
31336;SDS011;22846;42.654;23.314;2023-03-17T15:11:27;1.13;;;0.80;;
31336;SDS011;22846;42.654;23.314;2023-03-17T15:14:44;2.58;;;1.05;;
31336;SDS011;22846;42.654;23.314;2023-03-17T15:16:54;1.98;;;0.98;;
31336;SDS011;22846;42.654;23.314;2023-03-17T15:19:23;3.45;;;0.98;;
31336;SDS011;22846;42.654;23.314;2023-03-17T15:21:52;2.78;;;0.90;;
31336;SDS011;22846;42.654;23.314;2023-03-17T15:24:39;3.05;;;1.20;;
31336;SDS011;22846;42.654;23.314;2023-03-17T15:27:14;4.72;;;1.02;;
31336;SDS011;22846;42.654;23.314;2023-03-17T15:29:41;2.42;;;0.88;;
31336;SDS011;22846;42.654;23.314;2023-03-17T15:34:35;0.98;;;0.77;;
31336;SDS011;22846;42.654;23.314;2023-03-17T15:37:01;3.55;;;1.00;;
31336;SDS011;22846;42.654;23.314;2023-03-17T15:39:26;4.00;;;0.93;;
31336;SDS011;22846;42.654;23.314;2023-03-17T15:41:52;2.03;;;1.10;;
31336;SDS011;22846;42.654;23.314;2023-03-17T15:44:17;7.78;;;1.08;;
31336;SDS011;22846;42.654;23.314;2023-03-17T15:46:42;4.75;;;1.27;;
31336;SDS011;22846;42.654;23.314;2023-03-17T15:49:09;7.68;;;1.77;;
31336;SDS011;22846;42.654;23.314;2023-03-17T15:51:36;11.43;;;1.67;;
31336;SDS011;22846;42.654;23.314;2023-03-17T15:54:01;23.23;;;1.67;;
31336;SDS011;22846;42.654;23.314;2023-03-17T15:56:27;6.18;;;1.33;;
31336;SDS011;22846;42.654;23.314;2023-03-17T15:58:52;6.53;;;1.30;;
31336;SDS011;22846;42.654;23.314;2023-03-17T16:01:18;3.95;;;1.30;;
31336;SDS011;22846;42.654;23.314;2023-03-17T16:03:44;4.47;;;1.45;;
31336;SDS011;22846;42.654;23.314;2023-03-17T16:06:15;4.45;;;1.23;;
31336;SDS011;22846;42.654;23.314;2023-03-17T16:08:43;2.85;;;1.20;;
31336;SDS011;22846;42.654;23.314;2023-03-17T16:11:22;4.47;;;1.17;;
31336;SDS011;22846;42.654;23.314;2023-03-17T16:13:52;2.60;;;1.13;;
31336;SDS011;22846;42.654;23.314;2023-03-17T16:16:32;8.40;;;1.17;;
31336;SDS011;22846;42.654;23.314;2023-03-17T16:19:00;3.08;;;0.88;;
31336;SDS011;22846;42.654;23.314;2023-03-17T16:21:28;4.13;;;1.30;;
31336;SDS011;22846;42.654;23.314;2023-03-17T16:23:55;5.53;;;1.50;;
31336;SDS011;22846;42.654;23.314;2023-03-17T16:26:20;4.95;;;1.30;;
31336;SDS011;22846;42.654;23.314;2023-03-17T16:28:46;10.38;;;2.22;;
31336;SDS011;22846;42.654;23.314;2023-03-17T16:31:26;6.47;;;1.80;;
31336;SDS011;22846;42.654;23.314;2023-03-17T16:33:55;44.67;;;30.42;;
31336;SDS011;22846;42.654;23.314;2023-03-17T16:36:21;87.30;;;54.05;;
31336;SDS011;22846;42.654;23.314;2023-03-17T16:38:48;58.05;;;39.05;;
31336;SDS011;22846;42.654;23.314;2023-03-17T16:41:18;56.47;;;35.83;;